sensor_id;sensor_type;location;lat;lon;timestamp;P1;durP1;ratioP1;P2;durP2;ratioP2
72785;SDS011;60902;53.876;10.674;2023-04-15T00:00:03;6.63;;;3.47;;
72785;SDS011;60902;53.876;10.674;2023-04-15T00:00:17;6.30;;;3.22;;
72785;SDS011;60902;53.876;10.674;2023-04-15T00:00:28;5.80;;;3.13;;
72785;SDS011;60902;53.876;10.674;2023-04-15T00:00:39;5.80;;;3.30;;
72785;SDS011;60902;53.876;10.674;2023-04-15T00:00:50;5.70;;;3.45;;
72785;SDS011;60902;53.876;10.674;2023-04-15T00:01:01;5.80;;;3.40;;
72785;SDS011;60902;53.876;10.674;2023-04-15T00:01:14;5.70;;;3.47;;
72785;SDS011;60902;53.876;10.674;2023-04-15T00:01:28;5.68;;;3.70;;
72785;SDS011;60902;53.876;10.674;2023-04-15T00:01:41;5.40;;;3.63;;
72785;SDS011;60902;53.876;10.674;2023-04-15T00:01:54;5.53;;;3.30;;
72785;SDS011;60902;53.876;10.674;2023-04-15T00:02:14;5.95;;;3.47;;
72785;SDS011;60902;53.876;10.674;2023-04-15T00:02:25;6.32;;;3.65;;
72785;SDS011;60902;53.876;10.674;2023-04-15T00:02:36;6.28;;;3.55;;
72785;SDS011;60902;53.876;10.674;2023-04-15T00:02:47;6.38;;;3.53;;
72785;SDS011;60902;53.876;10.674;2023-04-15T00:03:00;5.90;;;3.45;;
72785;SDS011;60902;53.876;10.674;2023-04-15T00:03:11;5.88;;;3.47;;
72785;SDS011;60902;53.876;10.674;2023-04-15T00:03:22;5.77;;;3.40;;
72785;SDS011;60902;53.876;10.674;2023-04-15T00:03:33;5.70;;;3.58;;
72785;SDS011;60902;53.876;10.674;2023-04-15T00:03:45;5.90;;;3.70;;
72785;SDS011;60902;53.876;10.674;2023-04-15T00:03:56;5.88;;;3.60;;
72785;SDS011;60902;53.876;10.674;2023-04-15T00:04:08;5.82;;;3.22;;
72785;SDS011;60902;53.876;10.674;2023-04-15T00:04:20;5.80;;;3.30;;
72785;SDS011;60902;53.876;10.674;2023-04-15T00:04:30;6.03;;;3.42;;
72785;SDS011;60902;53.876;10.674;2023-04-15T00:04:42;6.00;;;3.42;;
72785;SDS011;60902;53.876;10.674;2023-04-15T00:04:54;6.00;;;3.47;;
72785;SDS011;60902;53.876;10.674;2023-04-15T00:05:09;5.82;;;3.42;;
72785;SDS011;60902;53.876;10.674;2023-04-15T00:05:20;5.35;;;3.05;;
72785;SDS011;60902;53.876;10.674;2023-04-15T00:05:31;5.30;;;3.03;;
72785;SDS011;60902;53.876;10.674;2023-04-15T00:05:46;5.60;;;3.22;;
72785;SDS011;60902;53.876;10.674;2023-04-15T00:05:57;7.20;;;3.72;;
72785;SDS011;60902;53.876;10.674;2023-04-15T00:06:09;7.20;;;3.85;;
72785;SDS011;60902;53.876;10.674;2023-04-15T00:06:25;5.97;;;3.55;;
72785;SDS011;60902;53.876;10.674;2023-04-15T00:06:38;5.85;;;3.38;;
72785;SDS011;60902;53.876;10.674;2023-04-15T00:06:51;6.05;;;3.30;;
72785;SDS011;60902;53.876;10.674;2023-04-15T00:07:05;6.38;;;3.47;;
72785;SDS011;60902;53.876;10.674;2023-04-15T00:07:16;6.25;;;3.70;;
72785;SDS011;60902;53.876;10.674;2023-04-15T00:07:27;6.75;;;3.80;;
72785;SDS011;60902;53.876;10.674;2023-04-15T00:07:40;6.53;;;3.60;;
72785;SDS011;60902;53.876;10.674;2023-04-15T00:07:52;6.38;;;3.58;;
72785;SDS011;60902;53.876;10.674;2023-04-15T00:08:03;6.05;;;3.53;;
72785;SDS011;60902;53.876;10.674;2023-04-15T00:08:17;6.60;;;3.60;;
72785;SDS011;60902;53.876;10.674;2023-04-15T00:08:30;6.35;;;3.58;;
72785;SDS011;60902;53.876;10.674;2023-04-15T00:08:41;5.67;;;3.30;;
72785;SDS011;60902;53.876;10.674;2023-04-15T00:08:52;5.70;;;3.25;;
72785;SDS011;60902;53.876;10.674;2023-04-15T00:09:03;5.70;;;3.35;;
72785;SDS011;60902;53.876;10.674;2023-04-15T00:09:14;5.80;;;3.63;;
72785;SDS011;60902;53.876;10.674;2023-04-15T00:09:26;6.28;;;4.13;;
72785;SDS011;60902;53.876;10.674;2023-04-15T00:09:37;6.68;;;4.18;;
72785;SDS011;60902;53.876;10.674;2023-04-15T00:09:50;6.75;;;3.92;;
72785;SDS011;60902;53.876;10.674;2023-04-15T00:10:04;6.00;;;3.60;;
72785;SDS011;60902;53.876;10.674;2023-04-15T00:10:16;5.65;;;3.60;;
72785;SDS011;60902;53.876;10.674;2023-04-15T00:10:31;6.13;;;3.90;;
72785;SDS011;60902;53.876;10.674;2023-04-15T00:10:42;6.25;;;3.90;;
72785;SDS011;60902;53.876;10.674;2023-04-15T00:10:55;6.60;;;4.03;;
72785;SDS011;60902;53.876;10.674;2023-04-15T00:11:08;6.50;;;4.00;;
72785;SDS011;60902;53.876;10.674;2023-04-15T00:11:19;6.35;;;4.15;;
72785;SDS011;60902;53.876;10.674;2023-04-15T00:11:30;6.30;;;4.00;;
72785;SDS011;60902;53.876;10.674;2023-04-15T00:11:41;5.97;;;3.58;;
72785;SDS011;60902;53.876;10.674;2023-04-15T00:11:52;6.00;;;3.70;;
72785;SDS011;60902;53.876;10.674;2023-04-15T00:12:03;6.20;;;3.67;;
72785;SDS011;60902;53.876;10.674;2023-04-15T00:12:15;6.22;;;3.75;;
72785;SDS011;60902;53.876;10.674;2023-04-15T00:12:26;5.97;;;3.80;;
72785;SDS011;60902;53.876;10.674;2023-04-15T00:12:38;6.70;;;3.90;;
72785;SDS011;60902;53.876;10.674;2023-04-15T00:12:50;6.60;;;3.58;;
72785;SDS011;60902;53.876;10.674;2023-04-15T00:13:01;6.15;;;3.45;;
72785;SDS011;60902;53.876;10.674;2023-04-15T00:13:13;6.28;;;3.63;;
72785;SDS011;60902;53.876;10.674;2023-04-15T00:13:24;6.47;;;3.95;;
72785;SDS011;60902;53.876;10.674;2023-04-15T00:13:35;6.93;;;4.13;;
72785;SDS011;60902;53.876;10.674;2023-04-15T00:13:46;6.97;;;4.03;;
72785;SDS011;60902;53.876;10.674;2023-04-15T00:13:57;6.70;;;3.90;;
72785;SDS011;60902;53.876;10.674;2023-04-15T00:14:09;6.07;;;3.70;;
72785;SDS011;60902;53.876;10.674;2023-04-15T00:14:21;6.35;;;3.83;;
72785;SDS011;60902;53.876;10.674;2023-04-15T00:14:34;6.63;;;3.67;;
72785;SDS011;60902;53.876;10.674;2023-04-15T00:14:45;6.50;;;3.60;;
72785;SDS011;60902;53.876;10.674;2023-04-15T00:14:56;6.00;;;3.50;;
72785;SDS011;60902;53.876;10.674;2023-04-15T00:15:08;6.18;;;3.58;;
72785;SDS011;60902;53.876;10.674;2023-04-15T00:15:21;6.63;;;3.60;;
72785;SDS011;60902;53.876;10.674;2023-04-15T00:15:32;7.00;;;3.97;;
72785;SDS011;60902;53.876;10.674;2023-04-15T00:15:43;6.60;;;4.00;;
72785;SDS011;60902;53.876;10.674;2023-04-15T00:15:54;6.57;;;4.05;;
72785;SDS011;60902;53.876;10.674;2023-04-15T00:16:07;6.25;;;3.83;;
72785;SDS011;60902;53.876;10.674;2023-04-15T00:16:19;6.32;;;3.95;;
72785;SDS011;60902;53.876;10.674;2023-04-15T00:16:30;6.15;;;3.67;;
72785;SDS011;60902;53.876;10.674;2023-04-15T00:16:41;6.32;;;3.78;;
72785;SDS011;60902;53.876;10.674;2023-04-15T00:16:52;6.05;;;3.65;;
72785;SDS011;60902;53.876;10.674;2023-04-15T00:17:05;5.85;;;3.65;;
72785;SDS011;60902;53.876;10.674;2023-04-15T00:17:16;5.68;;;3.60;;
72785;SDS011;60902;53.876;10.674;2023-04-15T00:17:27;6.03;;;3.78;;
72785;SDS011;60902;53.876;10.674;2023-04-15T00:17:40;6.18;;;3.85;;
72785;SDS011;60902;53.876;10.674;2023-04-15T00:17:51;6.30;;;3.80;;
72785;SDS011;60902;53.876;10.674;2023-04-15T00:18:02;6.63;;;4.00;;
72785;SDS011;60902;53.876;10.674;2023-04-15T00:18:13;6.82;;;4.10;;
72785;SDS011;60902;53.876;10.674;2023-04-15T00:18:24;6.88;;;4.18;;
72785;SDS011;60902;53.876;10.674;2023-04-15T00:18:35;6.50;;;4.00;;
72785;SDS011;60902;53.876;10.674;2023-04-15T00:18:47;6.25;;;3.80;;
72785;SDS011;60902;53.876;10.674;2023-04-15T00:19:00;6.30;;;3.65;;
72785;SDS011;60902;53.876;10.674;2023-04-15T00:19:11;6.32;;;3.65;;
72785;SDS011;60902;53.876;10.674;2023-04-15T00:19:22;6.32;;;3.70;;
72785;SDS011;60902;53.876;10.674;2023-04-15T00:19:33;6.35;;;3.78;;
72785;SDS011;60902;53.876;10.674;2023-04-15T00:19:44;6.30;;;3.90;;
72785;SDS011;60902;53.876;10.674;2023-04-15T00:19:56;6.10;;;3.92;;
72785;SDS011;60902;53.876;10.674;2023-04-15T00:20:09;6.20;;;3.90;;
72785;SDS011;60902;53.876;10.674;2023-04-15T00:20:20;6.40;;;4.03;;
72785;SDS011;60902;53.876;10.674;2023-04-15T00:20:31;6.57;;;4.00;;
72785;SDS011;60902;53.876;10.674;2023-04-15T00:20:43;6.47;;;3.90;;
72785;SDS011;60902;53.876;10.674;2023-04-15T00:20:54;6.18;;;3.60;;
72785;SDS011;60902;53.876;10.674;2023-04-15T00:21:05;5.68;;;3.30;;
72785;SDS011;60902;53.876;10.674;2023-04-15T00:21:18;5.93;;;3.30;;
72785;SDS011;60902;53.876;10.674;2023-04-15T00:21:29;6.40;;;3.58;;
72785;SDS011;60902;53.876;10.674;2023-04-15T00:21:39;6.53;;;3.78;;
72785;SDS011;60902;53.876;10.674;2023-04-15T00:21:51;6.75;;;4.03;;
72785;SDS011;60902;53.876;10.674;2023-04-15T00:22:03;6.60;;;3.90;;
72785;SDS011;60902;53.876;10.674;2023-04-15T00:22:13;6.30;;;3.65;;
72785;SDS011;60902;53.876;10.674;2023-04-15T00:22:25;6.20;;;3.70;;
72785;SDS011;60902;53.876;10.674;2023-04-15T00:22:36;6.47;;;3.72;;
72785;SDS011;60902;53.876;10.674;2023-04-15T00:22:47;6.20;;;3.58;;
72785;SDS011;60902;53.876;10.674;2023-04-15T00:22:58;6.35;;;3.60;;
72785;SDS011;60902;53.876;10.674;2023-04-15T00:23:09;6.75;;;3.97;;
72785;SDS011;60902;53.876;10.674;2023-04-15T00:23:23;6.90;;;4.22;;
72785;SDS011;60902;53.876;10.674;2023-04-15T00:23:35;6.57;;;3.97;;
72785;SDS011;60902;53.876;10.674;2023-04-15T00:23:46;6.30;;;4.00;;
72785;SDS011;60902;53.876;10.674;2023-04-15T00:24:01;6.30;;;4.10;;
72785;SDS011;60902;53.876;10.674;2023-04-15T00:24:12;6.25;;;3.88;;
72785;SDS011;60902;53.876;10.674;2023-04-15T00:24:24;6.35;;;3.78;;
72785;SDS011;60902;53.876;10.674;2023-04-15T00:24:35;6.63;;;3.80;;
72785;SDS011;60902;53.876;10.674;2023-04-15T00:24:46;6.93;;;3.88;;
72785;SDS011;60902;53.876;10.674;2023-04-15T00:24:58;6.82;;;4.03;;
72785;SDS011;60902;53.876;10.674;2023-04-15T00:25:11;6.30;;;3.90;;
72785;SDS011;60902;53.876;10.674;2023-04-15T00:25:22;6.07;;;3.65;;
72785;SDS011;60902;53.876;10.674;2023-04-15T00:25:32;6.60;;;3.77;;
72785;SDS011;60902;53.876;10.674;2023-04-15T00:25:43;6.85;;;4.20;;
72785;SDS011;60902;53.876;10.674;2023-04-15T00:25:54;6.85;;;4.00;;
72785;SDS011;60902;53.876;10.674;2023-04-15T00:26:06;6.40;;;3.65;;
72785;SDS011;60902;53.876;10.674;2023-04-15T00:26:16;6.30;;;3.60;;
72785;SDS011;60902;53.876;10.674;2023-04-15T00:26:28;6.32;;;3.75;;
72785;SDS011;60902;53.876;10.674;2023-04-15T00:26:39;6.20;;;3.85;;
72785;SDS011;60902;53.876;10.674;2023-04-15T00:26:50;6.30;;;3.90;;
72785;SDS011;60902;53.876;10.674;2023-04-15T00:27:02;6.20;;;4.00;;
72785;SDS011;60902;53.876;10.674;2023-04-15T00:27:13;6.20;;;4.05;;
72785;SDS011;60902;53.876;10.674;2023-04-15T00:27:24;6.53;;;4.20;;
72785;SDS011;60902;53.876;10.674;2023-04-15T00:27:35;6.72;;;4.32;;
72785;SDS011;60902;53.876;10.674;2023-04-15T00:27:47;6.78;;;4.38;;
72785;SDS011;60902;53.876;10.674;2023-04-15T00:27:58;6.60;;;4.28;;
72785;SDS011;60902;53.876;10.674;2023-04-15T00:28:08;6.70;;;4.22;;
72785;SDS011;60902;53.876;10.674;2023-04-15T00:28:19;6.68;;;4.20;;
72785;SDS011;60902;53.876;10.674;2023-04-15T00:28:33;6.13;;;3.97;;
72785;SDS011;60902;53.876;10.674;2023-04-15T00:28:44;6.07;;;3.80;;
72785;SDS011;60902;53.876;10.674;2023-04-15T00:28:55;6.22;;;4.03;;
72785;SDS011;60902;53.876;10.674;2023-04-15T00:29:06;6.47;;;4.17;;
72785;SDS011;60902;53.876;10.674;2023-04-15T00:29:17;6.50;;;4.22;;
72785;SDS011;60902;53.876;10.674;2023-04-15T00:29:28;6.25;;;4.00;;
72785;SDS011;60902;53.876;10.674;2023-04-15T00:29:39;6.68;;;4.00;;
72785;SDS011;60902;53.876;10.674;2023-04-15T00:29:50;6.75;;;3.97;;
72785;SDS011;60902;53.876;10.674;2023-04-15T00:30:01;7.00;;;4.00;;
72785;SDS011;60902;53.876;10.674;2023-04-15T00:30:26;6.63;;;4.22;;
72785;SDS011;60902;53.876;10.674;2023-04-15T00:30:37;6.75;;;4.38;;
72785;SDS011;60902;53.876;10.674;2023-04-15T00:30:48;6.65;;;4.30;;
72785;SDS011;60902;53.876;10.674;2023-04-15T00:30:59;6.43;;;4.18;;
72785;SDS011;60902;53.876;10.674;2023-04-15T00:31:10;6.50;;;4.03;;
72785;SDS011;60902;53.876;10.674;2023-04-15T00:31:21;6.45;;;4.03;;
72785;SDS011;60902;53.876;10.674;2023-04-15T00:31:32;6.43;;;3.97;;
72785;SDS011;60902;53.876;10.674;2023-04-15T00:31:43;6.40;;;4.13;;
72785;SDS011;60902;53.876;10.674;2023-04-15T00:31:55;6.53;;;4.40;;
72785;SDS011;60902;53.876;10.674;2023-04-15T00:32:06;7.03;;;4.68;;
72785;SDS011;60902;53.876;10.674;2023-04-15T00:32:18;6.70;;;4.28;;
72785;SDS011;60902;53.876;10.674;2023-04-15T00:32:29;6.65;;;4.20;;
72785;SDS011;60902;53.876;10.674;2023-04-15T00:32:40;6.60;;;3.92;;
72785;SDS011;60902;53.876;10.674;2023-04-15T00:32:52;6.72;;;4.03;;
72785;SDS011;60902;53.876;10.674;2023-04-15T00:33:03;6.25;;;3.97;;
72785;SDS011;60902;53.876;10.674;2023-04-15T00:33:14;6.22;;;3.88;;
72785;SDS011;60902;53.876;10.674;2023-04-15T00:33:25;6.88;;;3.95;;
72785;SDS011;60902;53.876;10.674;2023-04-15T00:33:36;7.00;;;3.85;;
72785;SDS011;60902;53.876;10.674;2023-04-15T00:33:47;6.83;;;3.93;;
72785;SDS011;60902;53.876;10.674;2023-04-15T00:33:58;6.10;;;3.83;;
72785;SDS011;60902;53.876;10.674;2023-04-15T00:34:09;6.10;;;4.00;;
72785;SDS011;60902;53.876;10.674;2023-04-15T00:34:21;6.45;;;4.07;;
72785;SDS011;60902;53.876;10.674;2023-04-15T00:34:32;6.32;;;3.97;;
72785;SDS011;60902;53.876;10.674;2023-04-15T00:34:43;6.55;;;4.07;;
72785;SDS011;60902;53.876;10.674;2023-04-15T00:34:54;6.38;;;4.00;;
72785;SDS011;60902;53.876;10.674;2023-04-15T00:35:05;6.57;;;4.10;;
72785;SDS011;60902;53.876;10.674;2023-04-15T00:35:17;6.70;;;4.28;;
72785;SDS011;60902;53.876;10.674;2023-04-15T00:35:28;6.90;;;4.50;;
72785;SDS011;60902;53.876;10.674;2023-04-15T00:35:41;6.40;;;4.05;;
72785;SDS011;60902;53.876;10.674;2023-04-15T00:35:52;6.33;;;3.90;;
72785;SDS011;60902;53.876;10.674;2023-04-15T00:36:03;7.10;;;4.45;;
72785;SDS011;60902;53.876;10.674;2023-04-15T00:36:17;7.45;;;4.53;;
72785;SDS011;60902;53.876;10.674;2023-04-15T00:36:28;7.15;;;4.32;;
72785;SDS011;60902;53.876;10.674;2023-04-15T00:36:39;7.25;;;4.22;;
72785;SDS011;60902;53.876;10.674;2023-04-15T00:36:50;7.20;;;4.10;;
72785;SDS011;60902;53.876;10.674;2023-04-15T00:37:02;6.90;;;4.07;;
72785;SDS011;60902;53.876;10.674;2023-04-15T00:37:13;6.57;;;3.92;;
72785;SDS011;60902;53.876;10.674;2023-04-15T00:37:24;6.43;;;3.92;;
72785;SDS011;60902;53.876;10.674;2023-04-15T00:37:35;6.70;;;4.20;;
72785;SDS011;60902;53.876;10.674;2023-04-15T00:37:46;6.57;;;4.18;;
72785;SDS011;60902;53.876;10.674;2023-04-15T00:37:57;6.82;;;4.40;;
72785;SDS011;60902;53.876;10.674;2023-04-15T00:38:08;6.50;;;4.22;;
72785;SDS011;60902;53.876;10.674;2023-04-15T00:38:19;6.53;;;4.38;;
72785;SDS011;60902;53.876;10.674;2023-04-15T00:38:30;6.50;;;4.00;;
72785;SDS011;60902;53.876;10.674;2023-04-15T00:38:43;6.72;;;4.10;;
72785;SDS011;60902;53.876;10.674;2023-04-15T00:38:53;6.93;;;4.25;;
72785;SDS011;60902;53.876;10.674;2023-04-15T00:39:04;7.32;;;4.68;;
72785;SDS011;60902;53.876;10.674;2023-04-15T00:39:15;7.30;;;4.68;;
72785;SDS011;60902;53.876;10.674;2023-04-15T00:39:26;7.15;;;4.70;;
72785;SDS011;60902;53.876;10.674;2023-04-15T00:39:37;7.07;;;4.75;;
72785;SDS011;60902;53.876;10.674;2023-04-15T00:39:48;7.18;;;4.55;;
72785;SDS011;60902;53.876;10.674;2023-04-15T00:40:00;6.95;;;4.18;;
72785;SDS011;60902;53.876;10.674;2023-04-15T00:40:15;6.63;;;3.90;;
72785;SDS011;60902;53.876;10.674;2023-04-15T00:40:28;6.75;;;4.25;;
72785;SDS011;60902;53.876;10.674;2023-04-15T00:40:39;6.85;;;4.40;;
72785;SDS011;60902;53.876;10.674;2023-04-15T00:40:51;6.82;;;4.60;;
72785;SDS011;60902;53.876;10.674;2023-04-15T00:41:02;6.80;;;4.43;;
72785;SDS011;60902;53.876;10.674;2023-04-15T00:41:14;6.72;;;4.35;;
72785;SDS011;60902;53.876;10.674;2023-04-15T00:41:25;6.65;;;4.15;;
72785;SDS011;60902;53.876;10.674;2023-04-15T00:41:36;6.45;;;4.05;;
72785;SDS011;60902;53.876;10.674;2023-04-15T00:41:49;6.80;;;4.10;;
72785;SDS011;60902;53.876;10.674;2023-04-15T00:42:00;6.95;;;4.18;;
72785;SDS011;60902;53.876;10.674;2023-04-15T00:42:12;7.10;;;4.30;;
72785;SDS011;60902;53.876;10.674;2023-04-15T00:42:23;7.60;;;4.38;;
72785;SDS011;60902;53.876;10.674;2023-04-15T00:42:35;7.32;;;4.28;;
72785;SDS011;60902;53.876;10.674;2023-04-15T00:42:46;7.18;;;4.25;;
72785;SDS011;60902;53.876;10.674;2023-04-15T00:42:58;6.97;;;4.10;;
72785;SDS011;60902;53.876;10.674;2023-04-15T00:43:10;7.28;;;4.18;;
72785;SDS011;60902;53.876;10.674;2023-04-15T00:43:21;7.15;;;4.25;;
72785;SDS011;60902;53.876;10.674;2023-04-15T00:43:32;7.05;;;4.22;;
72785;SDS011;60902;53.876;10.674;2023-04-15T00:43:46;6.85;;;4.40;;
72785;SDS011;60902;53.876;10.674;2023-04-15T00:43:58;6.90;;;4.22;;
72785;SDS011;60902;53.876;10.674;2023-04-15T00:44:09;6.97;;;4.22;;
72785;SDS011;60902;53.876;10.674;2023-04-15T00:44:20;6.78;;;4.00;;
72785;SDS011;60902;53.876;10.674;2023-04-15T00:44:31;6.75;;;3.97;;
72785;SDS011;60902;53.876;10.674;2023-04-15T00:44:43;7.72;;;4.38;;
72785;SDS011;60902;53.876;10.674;2023-04-15T00:44:54;7.65;;;4.53;;
72785;SDS011;60902;53.876;10.674;2023-04-15T00:45:06;7.65;;;4.50;;
72785;SDS011;60902;53.876;10.674;2023-04-15T00:45:18;7.40;;;4.35;;
72785;SDS011;60902;53.876;10.674;2023-04-15T00:45:29;7.47;;;4.45;;
72785;SDS011;60902;53.876;10.674;2023-04-15T00:45:40;6.75;;;4.13;;
72785;SDS011;60902;53.876;10.674;2023-04-15T00:45:51;6.30;;;4.18;;
72785;SDS011;60902;53.876;10.674;2023-04-15T00:46:03;6.50;;;4.00;;
72785;SDS011;60902;53.876;10.674;2023-04-15T00:46:16;6.72;;;4.05;;
72785;SDS011;60902;53.876;10.674;2023-04-15T00:46:30;6.80;;;4.15;;
72785;SDS011;60902;53.876;10.674;2023-04-15T00:46:43;6.95;;;4.40;;
72785;SDS011;60902;53.876;10.674;2023-04-15T00:46:55;7.07;;;4.60;;
72785;SDS011;60902;53.876;10.674;2023-04-15T00:47:07;7.00;;;4.63;;
72785;SDS011;60902;53.876;10.674;2023-04-15T00:47:19;6.85;;;4.68;;
72785;SDS011;60902;53.876;10.674;2023-04-15T00:47:31;6.57;;;4.45;;
72785;SDS011;60902;53.876;10.674;2023-04-15T00:47:44;6.32;;;4.10;;
72785;SDS011;60902;53.876;10.674;2023-04-15T00:47:56;6.47;;;4.10;;
72785;SDS011;60902;53.876;10.674;2023-04-15T00:48:08;6.90;;;4.47;;
72785;SDS011;60902;53.876;10.674;2023-04-15T00:48:21;7.05;;;4.50;;
72785;SDS011;60902;53.876;10.674;2023-04-15T00:48:33;7.15;;;4.65;;
72785;SDS011;60902;53.876;10.674;2023-04-15T00:48:45;7.63;;;4.50;;
72785;SDS011;60902;53.876;10.674;2023-04-15T00:48:57;7.55;;;4.38;;
72785;SDS011;60902;53.876;10.674;2023-04-15T00:49:07;7.45;;;4.45;;
72785;SDS011;60902;53.876;10.674;2023-04-15T00:49:18;7.07;;;4.57;;
72785;SDS011;60902;53.876;10.674;2023-04-15T00:49:30;7.38;;;4.78;;
72785;SDS011;60902;53.876;10.674;2023-04-15T00:49:42;7.55;;;4.40;;
72785;SDS011;60902;53.876;10.674;2023-04-15T00:49:53;7.97;;;4.55;;
72785;SDS011;60902;53.876;10.674;2023-04-15T00:50:04;7.83;;;4.53;;
72785;SDS011;60902;53.876;10.674;2023-04-15T00:50:16;7.05;;;4.50;;
72785;SDS011;60902;53.876;10.674;2023-04-15T00:50:27;6.55;;;4.25;;
72785;SDS011;60902;53.876;10.674;2023-04-15T00:50:37;6.60;;;4.20;;
72785;SDS011;60902;53.876;10.674;2023-04-15T00:50:48;6.90;;;4.50;;
72785;SDS011;60902;53.876;10.674;2023-04-15T00:51:00;7.55;;;4.70;;
72785;SDS011;60902;53.876;10.674;2023-04-15T00:51:11;7.57;;;4.63;;
72785;SDS011;60902;53.876;10.674;2023-04-15T00:51:22;7.35;;;4.60;;
72785;SDS011;60902;53.876;10.674;2023-04-15T00:51:33;7.07;;;4.60;;
72785;SDS011;60902;53.876;10.674;2023-04-15T00:51:45;6.68;;;4.50;;
72785;SDS011;60902;53.876;10.674;2023-04-15T00:51:57;6.70;;;4.38;;
72785;SDS011;60902;53.876;10.674;2023-04-15T00:52:07;6.97;;;4.38;;
72785;SDS011;60902;53.876;10.674;2023-04-15T00:52:20;7.22;;;4.13;;
72785;SDS011;60902;53.876;10.674;2023-04-15T00:52:31;7.10;;;3.90;;
72785;SDS011;60902;53.876;10.674;2023-04-15T00:52:43;7.10;;;4.10;;
72785;SDS011;60902;53.876;10.674;2023-04-15T00:52:55;6.90;;;4.32;;
72785;SDS011;60902;53.876;10.674;2023-04-15T00:53:06;6.90;;;4.38;;
72785;SDS011;60902;53.876;10.674;2023-04-15T00:53:17;7.15;;;4.40;;
72785;SDS011;60902;53.876;10.674;2023-04-15T00:53:28;7.80;;;4.60;;
72785;SDS011;60902;53.876;10.674;2023-04-15T00:53:38;7.75;;;4.75;;
72785;SDS011;60902;53.876;10.674;2023-04-15T00:53:50;8.02;;;4.93;;
72785;SDS011;60902;53.876;10.674;2023-04-15T00:54:01;7.40;;;4.60;;
72785;SDS011;60902;53.876;10.674;2023-04-15T00:54:13;7.28;;;4.80;;
72785;SDS011;60902;53.876;10.674;2023-04-15T00:54:25;6.85;;;4.57;;
72785;SDS011;60902;53.876;10.674;2023-04-15T00:54:36;6.95;;;4.47;;
72785;SDS011;60902;53.876;10.674;2023-04-15T00:54:47;7.37;;;4.40;;
72785;SDS011;60902;53.876;10.674;2023-04-15T00:55:01;7.55;;;4.63;;
72785;SDS011;60902;53.876;10.674;2023-04-15T00:55:13;7.28;;;4.47;;
72785;SDS011;60902;53.876;10.674;2023-04-15T00:55:24;7.80;;;4.50;;
72785;SDS011;60902;53.876;10.674;2023-04-15T00:55:35;8.17;;;4.73;;
72785;SDS011;60902;53.876;10.674;2023-04-15T00:55:47;8.30;;;4.85;;
72785;SDS011;60902;53.876;10.674;2023-04-15T00:56:00;7.65;;;5.00;;
72785;SDS011;60902;53.876;10.674;2023-04-15T00:56:11;7.32;;;4.60;;
72785;SDS011;60902;53.876;10.674;2023-04-15T00:56:25;7.32;;;4.50;;
72785;SDS011;60902;53.876;10.674;2023-04-15T00:56:38;7.55;;;4.50;;
72785;SDS011;60902;53.876;10.674;2023-04-15T00:56:49;7.55;;;4.50;;
72785;SDS011;60902;53.876;10.674;2023-04-15T00:57:00;7.37;;;4.40;;
72785;SDS011;60902;53.876;10.674;2023-04-15T00:57:12;7.50;;;4.70;;
72785;SDS011;60902;53.876;10.674;2023-04-15T00:57:23;7.60;;;4.70;;
72785;SDS011;60902;53.876;10.674;2023-04-15T00:57:35;7.23;;;4.30;;
72785;SDS011;60902;53.876;10.674;2023-04-15T00:57:46;7.32;;;4.22;;
72785;SDS011;60902;53.876;10.674;2023-04-15T00:57:58;7.20;;;4.50;;
72785;SDS011;60902;53.876;10.674;2023-04-15T00:58:08;7.22;;;4.60;;
72785;SDS011;60902;53.876;10.674;2023-04-15T00:58:20;7.53;;;4.80;;
72785;SDS011;60902;53.876;10.674;2023-04-15T00:58:31;7.60;;;4.68;;
72785;SDS011;60902;53.876;10.674;2023-04-15T00:58:43;7.70;;;4.70;;
72785;SDS011;60902;53.876;10.674;2023-04-15T00:58:54;7.38;;;4.35;;
72785;SDS011;60902;53.876;10.674;2023-04-15T00:59:06;7.68;;;4.68;;
72785;SDS011;60902;53.876;10.674;2023-04-15T00:59:18;7.40;;;4.60;;
72785;SDS011;60902;53.876;10.674;2023-04-15T00:59:30;7.28;;;4.75;;
72785;SDS011;60902;53.876;10.674;2023-04-15T00:59:42;7.47;;;4.97;;
72785;SDS011;60902;53.876;10.674;2023-04-15T00:59:53;7.60;;;5.07;;
72785;SDS011;60902;53.876;10.674;2023-04-15T01:00:06;7.45;;;4.88;;
72785;SDS011;60902;53.876;10.674;2023-04-15T01:00:21;7.38;;;4.63;;
72785;SDS011;60902;53.876;10.674;2023-04-15T01:00:32;7.28;;;4.47;;
72785;SDS011;60902;53.876;10.674;2023-04-15T01:00:45;7.50;;;4.60;;
72785;SDS011;60902;53.876;10.674;2023-04-15T01:00:56;7.65;;;4.72;;
72785;SDS011;60902;53.876;10.674;2023-04-15T01:01:09;8.10;;;4.75;;
72785;SDS011;60902;53.876;10.674;2023-04-15T01:01:20;7.50;;;4.43;;
72785;SDS011;60902;53.876;10.674;2023-04-15T01:01:35;7.60;;;4.57;;
72785;SDS011;60902;53.876;10.674;2023-04-15T01:01:47;7.85;;;4.97;;
72785;SDS011;60902;53.876;10.674;2023-04-15T01:01:59;8.00;;;5.15;;
72785;SDS011;60902;53.876;10.674;2023-04-15T01:02:11;8.45;;;5.03;;
72785;SDS011;60902;53.876;10.674;2023-04-15T01:02:22;8.70;;;5.13;;
72785;SDS011;60902;53.876;10.674;2023-04-15T01:02:33;8.55;;;5.03;;
72785;SDS011;60902;53.876;10.674;2023-04-15T01:02:46;7.53;;;4.72;;
72785;SDS011;60902;53.876;10.674;2023-04-15T01:02:57;7.28;;;4.60;;
72785;SDS011;60902;53.876;10.674;2023-04-15T01:03:08;7.45;;;5.00;;
72785;SDS011;60902;53.876;10.674;2023-04-15T01:03:19;7.57;;;5.25;;
72785;SDS011;60902;53.876;10.674;2023-04-15T01:03:30;7.68;;;5.07;;
72785;SDS011;60902;53.876;10.674;2023-04-15T01:03:41;7.85;;;4.85;;
72785;SDS011;60902;53.876;10.674;2023-04-15T01:03:54;7.72;;;4.72;;
72785;SDS011;60902;53.876;10.674;2023-04-15T01:04:07;8.05;;;5.00;;
72785;SDS011;60902;53.876;10.674;2023-04-15T01:04:19;7.90;;;4.90;;
72785;SDS011;60902;53.876;10.674;2023-04-15T01:04:31;7.85;;;5.15;;
72785;SDS011;60902;53.876;10.674;2023-04-15T01:04:42;7.95;;;5.38;;
72785;SDS011;60902;53.876;10.674;2023-04-15T01:04:53;8.10;;;5.43;;
72785;SDS011;60902;53.876;10.674;2023-04-15T01:05:05;7.63;;;4.85;;
72785;SDS011;60902;53.876;10.674;2023-04-15T01:05:17;7.53;;;4.95;;
72785;SDS011;60902;53.876;10.674;2023-04-15T01:05:28;7.47;;;5.15;;
72785;SDS011;60902;53.876;10.674;2023-04-15T01:05:40;7.72;;;5.25;;
72785;SDS011;60902;53.876;10.674;2023-04-15T01:05:52;7.80;;;4.75;;
72785;SDS011;60902;53.876;10.674;2023-04-15T01:06:07;7.97;;;4.60;;
72785;SDS011;60902;53.876;10.674;2023-04-15T01:06:18;8.02;;;4.70;;
72785;SDS011;60902;53.876;10.674;2023-04-15T01:06:31;7.97;;;5.00;;
72785;SDS011;60902;53.876;10.674;2023-04-15T01:06:42;7.75;;;4.90;;
72785;SDS011;60902;53.876;10.674;2023-04-15T01:06:53;7.83;;;4.83;;
72785;SDS011;60902;53.876;10.674;2023-04-15T01:07:04;7.72;;;4.70;;
72785;SDS011;60902;53.876;10.674;2023-04-15T01:07:16;8.20;;;4.97;;
72785;SDS011;60902;53.876;10.674;2023-04-15T01:07:27;8.23;;;4.93;;
72785;SDS011;60902;53.876;10.674;2023-04-15T01:07:37;7.97;;;4.68;;
72785;SDS011;60902;53.876;10.674;2023-04-15T01:07:48;7.82;;;4.40;;
72785;SDS011;60902;53.876;10.674;2023-04-15T01:08:01;8.30;;;4.78;;
72785;SDS011;60902;53.876;10.674;2023-04-15T01:08:12;8.70;;;5.13;;
72785;SDS011;60902;53.876;10.674;2023-04-15T01:08:25;8.73;;;5.25;;
72785;SDS011;60902;53.876;10.674;2023-04-15T01:08:36;8.45;;;5.25;;
72785;SDS011;60902;53.876;10.674;2023-04-15T01:08:47;8.35;;;5.07;;
72785;SDS011;60902;53.876;10.674;2023-04-15T01:08:58;8.25;;;4.95;;
72785;SDS011;60902;53.876;10.674;2023-04-15T01:09:09;8.27;;;4.75;;
72785;SDS011;60902;53.876;10.674;2023-04-15T01:09:20;8.35;;;4.80;;